Time;durP1;ratioP1;P1;durP2;ratioP2;P2;SDS_P1;SDS_P2;PMS_P1;PMS_P2;Temp;Humidity;BMP_temperature;BMP_pressure;BME280_temperature;BME280_humidity;BME280_pressure;Samples;Min_cycle;Max_cycle;Signal;HPM_P1;HPM_P2
2022/09/02 00:02:25;;;;;;;4.63;3.00;;;;;;;7.72;80.35;99408.72;2173307;81;20929;-82
2022/09/02 00:05:25;;;;;;;6.23;2.70;;;;;;;7.70;80.43;99410.39;2173597;81;20953;-82
2022/09/02 00:08:25;;;;;;;398.27;27.50;;;;;;;7.63;80.33;99410.61;2173387;81;21336;-82
2022/09/02 00:11:26;;;;;;;11.40;3.30;;;;;;;7.56;80.74;99400.44;2178118;81;20996;-82
2022/09/02 00:14:26;;;;;;;6.33;2.87;;;;;;;7.56;80.63;99406.05;2189794;81;21021;-82
2022/09/02 00:17:27;;;;;;;6.20;2.90;;;;;;;7.51;80.46;99402.41;2189572;81;21412;-83
2022/09/02 00:20:27;;;;;;;4.50;3.17;;;;;;;7.47;80.55;99399.25;2189746;81;20932;-83
2022/09/02 00:23:27;;;;;;;7.50;2.83;;;;;;;7.45;80.70;99399.61;2190066;81;20897;-83
2022/09/02 00:26:28;;;;;;;3.13;2.87;;;;;;;7.44;80.75;99397.44;2190148;81;20953;-82
2022/09/02 00:29:28;;;;;;;7.67;3.33;;;;;;;7.44;80.88;99398.73;2190067;81;21308;-82
2022/09/02 00:32:29;;;;;;;6.30;2.90;;;;;;;7.45;80.82;99403.09;2190030;81;20897;-82
2022/09/02 00:35:29;;;;;;;4.63;2.90;;;;;;;7.41;80.73;99399.93;2190084;81;21000;-82
2022/09/02 00:38:32;;;;;;;3.73;3.10;;;;;;;7.37;80.75;99394.17;2190491;81;20965;-83
2022/09/02 00:41:31;;;;;;;10.13;2.80;;;;;;;7.34;80.71;99394.06;2190343;81;20933;-83
2022/09/02 00:44:30;;;;;;;2.90;2.60;;;;;;;7.31;80.86;99393.55;2189912;81;21395;-82
2022/09/02 00:47:31;;;;;;;3.97;2.63;;;;;;;7.29;80.87;99390.44;2190614;81;20992;-82
2022/09/02 00:50:31;;;;;;;6.90;3.23;;;;;;;7.23;80.63;99388.93;2190516;81;20944;-83
2022/09/02 00:53:31;;;;;;;7.27;3.10;;;;;;;7.19;80.75;99391.84;2190555;81;21304;-83
2022/09/02 00:56:32;;;;;;;2.73;2.43;;;;;;;7.17;80.80;99392.63;2190534;81;21043;-82
2022/09/02 00:59:32;;;;;;;7.03;3.07;;;;;;;7.12;80.67;99398.07;2190488;81;20928;-82
2022/09/02 01:02:33;;;;;;;6.17;2.90;;;;;;;7.07;80.70;99393.14;2190684;81;20963;-82
2022/09/02 01:05:33;;;;;;;3.87;2.93;;;;;;;7.03;80.82;99392.15;2190634;81;20925;-82
2022/09/02 01:08:34;;;;;;;5.20;3.07;;;;;;;7.03;81.03;99394.33;2190508;81;20971;-83
2022/09/02 01:11:34;;;;;;;9.47;2.70;;;;;;;7.02;80.79;99395.58;2190814;81;20965;-83
2022/09/02 01:14:34;;;;;;;6.27;2.93;;;;;;;7.02;80.79;99395.58;2191019;81;20984;-83
2022/09/02 01:17:35;;;;;;;3.13;2.80;;;;;;;6.96;80.77;99399.26;2190933;81;20963;-83
2022/09/02 01:20:35;;;;;;;5.03;2.93;;;;;;;6.89;80.97;99390.34;2190377;81;20901;-83
2022/09/02 01:23:36;;;;;;;5.83;3.40;;;;;;;6.86;81.02;99392.83;2190899;81;20972;-83
2022/09/02 01:26:36;;;;;;;4.57;3.33;;;;;;;6.80;81.10;99393.91;2190713;81;21292;-83
2022/09/02 01:29:36;;;;;;;5.53;3.20;;;;;;;6.77;81.24;99391.20;2190412;81;20956;-83
2022/09/02 01:32:37;;;;;;;15.53;3.93;;;;;;;6.76;81.26;99395.93;2190317;81;20932;-82
2022/09/02 01:35:37;;;;;;;71.13;7.37;;;;;;;6.73;81.47;99395.82;2190292;81;20937;-82
2022/09/02 01:38:37;;;;;;;14.07;3.30;;;;;;;6.74;81.51;99392.81;2190366;81;21316;-83
2022/09/02 01:41:38;;;;;;;4.30;2.90;;;;;;;6.73;81.59;99393.23;2190914;81;20958;-82
2022/09/02 01:44:42;;;;;;;6.00;3.33;;;;;;;6.68;81.47;99395.66;2190211;81;20987;-82
2022/09/02 01:47:39;;;;;;;6.37;2.90;;;;;;;6.66;81.69;99393.83;2190524;81;21033;-82
2022/09/02 01:50:39;;;;;;;3.27;2.87;;;;;;;6.62;81.29;99391.95;2190582;81;20908;-82
2022/09/02 01:53:39;;;;;;;8.23;3.83;;;;;;;6.58;81.32;99392.67;2190118;81;21319;-83
2022/09/02 01:56:40;;;;;;;6.10;3.10;;;;;;;6.53;81.46;99390.33;2190026;81;20948;-83
2022/09/02 01:59:42;;;;;;;3.73;2.83;;;;;;;6.46;81.33;99389.22;2190182;81;21023;-83
2022/09/02 02:02:41;;;;;;;3.93;2.90;;;;;;;6.49;81.64;99388.45;2190562;81;20905;-83
2022/09/02 02:05:41;;;;;;;12.60;3.40;;;;;;;6.56;81.86;99393.03;2190027;81;21315;-83
2022/09/02 02:08:42;;;;;;;6.70;2.90;;;;;;;6.66;87.62;99387.35;2190749;81;20908;-83
2022/09/02 02:11:42;;;;;;;6.30;3.40;;;;;;;6.93;81.99;99385.73;2190730;81;20972;-84
2022/09/02 02:14:42;;;;;;;7.87;3.23;;;;;;;6.75;81.39;99386.38;2190504;81;20941;-84
2022/09/02 02:17:43;;;;;;;4.17;3.23;;;;;;;6.65;81.43;99385.59;2190863;81;21347;-84
2022/09/02 02:20:43;;;;;;;5.60;3.00;;;;;;;6.61;81.47;99387.59;2190546;81;20932;-83
2022/09/02 02:23:44;;;;;;;35.97;6.00;;;;;;;6.54;81.40;99383.90;2190828;81;20978;-84
2022/09/02 02:26:44;;;;;;;3.33;2.90;;;;;;;6.48;81.56;99382.80;2190218;81;20955;-84
2022/09/02 02:29:44;;;;;;;3.23;2.90;;;;;;;6.42;81.69;99386.46;2189745;81;21011;-83
2022/09/02 02:32:46;;;;;;;4.50;2.47;;;;;;;6.37;81.64;99378.09;2190057;81;20952;-84
2022/09/02 02:35:46;;;;;;;13.87;3.47;;;;;;;6.33;81.52;99379.23;2190762;81;20976;-82
2022/09/02 02:38:46;;;;;;;6.10;3.33;;;;;;;6.28;81.88;99382.95;2189497;81;21008;-83
2022/09/02 02:41:46;;;;;;;5.07;3.37;;;;;;;6.29;82.40;99380.83;2190288;81;20956;-83
2022/09/02 02:44:46;;;;;;;4.33;3.00;;;;;;;6.26;81.82;99384.59;2189058;81;21418;-83
2022/09/02 02:47:47;;;;;;;5.00;2.70;;;;;;;6.23;81.71;99382.30;2188756;81;20909;-84
2022/09/02 02:50:47;;;;;;;3.27;2.60;;;;;;;6.15;81.56;99382.02;2188774;81;20947;-83
2022/09/02 02:53:48;;;;;;;4.60;2.60;;;;;;;6.10;81.49;99378.78;2189797;81;21277;-83
2022/09/02 02:56:48;;;;;;;13.97;3.53;;;;;;;6.07;81.74;99384.73;2189193;81;21027;-82
2022/09/02 02:59:48;;;;;;;35.20;4.33;;;;;;;6.03;81.84;99378.93;2189618;81;20988;-82
2022/09/02 03:02:49;;;;;;;85.13;8.90;;;;;;;6.03;82.32;99381.11;2191301;81;20928;-82
2022/09/02 03:05:50;;;;;;;5.23;2.80;;;;;;;6.08;82.45;99384.32;2191021;81;20925;-85
2022/09/02 03:08:52;;;;;;;3.80;2.77;;;;;;;6.01;81.94;99388.35;2190819;81;20949;-84
2022/09/02 03:11:51;;;;;;;7.83;2.97;;;;;;;6.02;81.69;99379.34;2188105;81;21004;-84
2022/09/02 03:14:51;;;;;;;9.53;3.00;;;;;;;6.02;81.69;99379.34;2174380;81;21032;-83
2022/09/02 03:17:51;;;;;;;7.23;3.70;;;;;;;6.07;82.08;99378.25;2173724;81;20995;-84
2022/09/02 03:20:52;;;;;;;123.83;13.87;;;;;;;6.00;81.96;99377.52;2173929;81;21280;-84
2022/09/02 03:23:52;;;;;;;4.97;3.30;;;;;;;5.97;81.94;99375.69;2174525;82;21040;-84
2022/09/02 03:26:53;;;;;;;6.47;3.23;;;;;;;5.95;81.80;99366.09;2174057;81;20909;-85
2022/09/02 03:29:53;;;;;;;6.43;2.73;;;;;;;5.95;82.04;99369.56;2173605;82;21035;-84
2022/09/02 03:32:53;;;;;;;4.63;2.87;;;;;;;5.88;81.70;99374.01;2174002;81;20961;-83
2022/09/02 03:35:54;;;;;;;5.47;2.70;;;;;;;5.84;81.87;99374.71;2174153;82;20972;-85
2022/09/02 03:38:54;;;;;;;40.73;5.10;;;;;;;5.78;81.78;99382.25;2174185;81;20929;-84
2022/09/02 03:41:55;;;;;;;13.00;3.73;;;;;;;5.72;82.02;99384.59;2174157;81;21308;-85
2022/09/02 03:44:55;;;;;;;15.43;3.00;;;;;;;5.67;82.01;99383.53;2172401;81;21076;-84
2022/09/02 03:47:55;;;;;;;540.90;44.10;;;;;;;5.64;81.99;99380.82;2172013;81;20976;-71
2022/09/02 03:50:56;;;;;;;25.57;4.90;;;;;;;5.66;82.59;99383.06;2168956;81;21407;-70
2022/09/02 03:53:56;;;;;;;7.50;3.13;;;;;;;5.69;82.52;99390.54;2170793;81;20988;-84
2022/09/02 03:56:57;;;;;;;11.50;3.67;;;;;;;5.68;82.55;99391.77;2171275;81;21301;-83
2022/09/02 03:59:57;;;;;;;7.67;3.00;;;;;;;5.71;82.30;99390.19;2171392;81;21345;-84
2022/09/02 04:02:58;;;;;;;5.13;3.07;;;;;;;5.68;81.96;99393.06;2171383;82;22052;-82
2022/09/02 04:05:58;;;;;;;7.33;3.03;;;;;;;5.64;81.93;99401.13;2170487;82;21051;-83
2022/09/02 04:08:58;;;;;;;6.10;3.17;;;;;;;5.64;82.38;99397.25;2170433;82;21024;-82
2022/09/02 04:11:59;;;;;;;11.97;3.33;;;;;;;5.64;82.07;99405.02;2172795;81;21074;-84
2022/09/02 04:14:59;;;;;;;3.27;2.40;;;;;;;5.62;82.04;99408.36;2187126;81;21015;-82
2022/09/02 04:18:00;;;;;;;15.97;3.10;;;;;;;5.62;82.04;99404.48;2188245;81;20972;-82
2022/09/02 04:21:00;;;;;;;19.83;5.97;;;;;;;5.63;82.26;99405.84;2189384;81;20936;-83
2022/09/02 04:24:00;;;;;;;6.17;2.97;;;;;;;5.68;82.45;99408.20;2189014;81;20994;-84
2022/09/02 04:27:01;;;;;;;7.33;3.73;;;;;;;5.70;81.89;99401.78;2189207;81;21358;-84
2022/09/02 04:30:01;;;;;;;5.17;2.83;;;;;;;5.68;81.80;99412.09;2188840;81;20968;-83
2022/09/02 04:33:02;;;;;;;6.50;2.80;;;;;;;5.71;81.81;99407.02;2189298;81;20960;-83
2022/09/02 04:36:02;;;;;;;4.90;2.93;;;;;;;5.72;81.83;99405.32;2188760;81;21385;-83
2022/09/02 04:39:02;;;;;;;5.40;2.60;;;;;;;5.72;81.78;99411.80;2188548;81;21023;-86
2022/09/02 04:42:04;;;;;;;10.70;2.63;;;;;;;5.77;82.15;99414.16;2189410;81;21016;-84
2022/09/02 04:45:05;;;;;;;77.93;6.67;;;;;;;5.90;82.28;99407.78;2188797;81;20991;-79
2022/09/02 04:48:05;;;;;;;7.90;3.90;;;;;;;6.00;82.40;99407.31;2189418;81;20976;-83
2022/09/02 04:51:07;;;;;;;32.27;4.37;;;;;;;6.15;82.42;99417.42;2171878;81;20957;-83
2022/09/02 04:54:08;;;;;;;23.97;4.27;;;;;;;6.25;82.36;99407.46;2188650;81;21038;-82
2022/09/02 04:57:08;;;;;;;7.73;3.00;;;;;;;6.46;82.37;99416.45;2188300;81;21427;-80
2022/09/02 05:00:08;;;;;;;15.27;3.73;;;;;;;6.61;81.99;99407.05;2187321;81;20972;-84
2022/09/02 05:03:10;;;;;;;9.57;3.07;;;;;;;6.79;81.95;99412.02;2187570;81;21048;-84
2022/09/02 05:06:09;;;;;;;45.03;6.00;;;;;;;6.89;81.83;99408.51;2187639;81;20980;-82
2022/09/02 05:09:10;;;;;;;25.07;4.67;;;;;;;7.12;82.08;99404.56;2187602;81;20999;-81
2022/09/02 05:12:10;;;;;;;69.43;6.83;;;;;;;7.28;82.03;99411.63;2187085;81;21467;-83
2022/09/02 05:15:11;;;;;;;8.13;3.30;;;;;;;7.44;82.06;99414.73;2186026;81;21043;-82
2022/09/02 05:18:11;;;;;;;10.63;3.43;;;;;;;7.62;82.27;99417.94;2186431;81;20948;-81
2022/09/02 05:21:12;;;;;;;12.87;3.40;;;;;;;7.85;82.48;99416.11;2187247;81;21016;-82
2022/09/02 05:24:12;;;;;;;16.07;4.47;;;;;;;8.09;82.60;99418.17;2186974;81;21343;-80
2022/09/02 05:27:14;;;;;;;217.77;15.03;;;;;;;8.34;82.28;99418.52;2187453;81;20976;-83
2022/09/02 05:30:13;;;;;;;61.03;7.00;;;;;;;8.57;81.74;99416.59;2188664;81;21042;-84
2022/09/02 05:33:13;;;;;;;58.53;5.93;;;;;;;8.82;81.90;99410.39;2188923;81;21011;-84
2022/09/02 05:36:14;;;;;;;21.60;4.90;;;;;;;9.06;81.43;99410.17;2188429;81;20979;-83
2022/09/02 05:39:14;;;;;;;15.27;4.20;;;;;;;9.29;81.04;99417.29;2189601;81;21391;-82
2022/09/02 05:42:15;;;;;;;28.13;4.87;;;;;;;9.56;80.70;99411.50;2189395;81;21351;-83
2022/09/02 05:45:15;;;;;;;45.17;5.87;;;;;;;9.72;80.24;99404.52;2188511;81;21030;-83
2022/09/02 05:51:34;;;;;;;22.80;4.03;;;;;;;10.21;80.03;99406.98;2188662;81;20976;-86
2022/09/02 05:54:35;;;;;;;49.73;6.17;;;;;;;10.38;79.48;99411.27;2188198;81;20964;-85
2022/09/02 05:57:35;;;;;;;27.20;3.97;;;;;;;10.62;79.34;99409.20;2187101;81;21023;-77
2022/09/02 06:00:35;;;;;;;27.80;4.60;;;;;;;10.81;79.11;99409.14;2184756;81;20964;-82
2022/09/02 06:03:36;;;;;;;8.50;3.33;;;;;;;10.92;79.10;99406.32;2187379;81;21058;-85
2022/09/02 06:06:40;;;;;;;5.00;2.80;;;;;;;11.20;78.83;99411.63;2187634;81;20960;-86
2022/09/02 06:09:39;;;;;;;6.27;2.70;;;;;;;11.51;78.69;99405.67;2188626;81;21026;-86
2022/09/02 06:12:41;;;;;;;3.70;3.10;;;;;;;11.83;78.03;99409.72;2185635;81;20997;-85
2022/09/02 06:15:42;;;;;;;4.65;2.90;;;;;;;12.13;77.55;99411.49;2172403;82;21423;-84
2022/09/02 06:18:41;;;;;;;6.30;2.70;;;;;;;12.42;77.10;99407.13;2171641;81;20991;-78
2022/09/02 06:21:41;;;;;;;12.05;3.90;;;;;;;12.74;76.28;99415.39;2170330;81;20984;-81
2022/09/02 06:24:41;;;;;;;11.03;3.30;;;;;;;12.99;75.75;99412.63;2171507;81;21379;-84
2022/09/02 06:27:42;;;;;;;4.92;3.08;;;;;;;13.51;75.26;99407.97;2170411;81;20996;-84
2022/09/02 06:30:42;;;;;;;11.43;3.15;;;;;;;13.75;74.33;99404.24;2170417;81;20982;-83
2022/09/02 06:33:43;;;;;;;12.50;3.17;;;;;;;13.99;73.65;99405.77;2170341;82;21466;-84
2022/09/02 06:36:43;;;;;;;8.80;2.52;;;;;;;14.30;73.50;99409.91;2170127;82;20949;-83
2022/09/02 06:39:45;;;;;;;5.22;2.37;;;;;;;14.58;72.54;99406.59;2170306;81;20964;-82
2022/09/02 06:42:44;;;;;;;9.08;3.12;;;;;;;14.91;72.27;99402.37;2171164;81;21012;-83
2022/09/02 06:45:47;;;;;;;3.30;2.40;;;;;;;15.19;71.84;99409.89;2170038;81;20990;-84
2022/09/02 06:48:48;;;;;;;7.65;2.77;;;;;;;15.54;71.30;99413.45;2163898;82;20989;-83
2022/09/02 06:51:47;;;;;;;2.10;1.70;;;;;;;15.88;70.80;99412.21;2171249;81;21016;-84
2022/09/02 06:54:49;;;;;;;4.97;1.85;;;;;;;16.19;69.50;99409.98;2171088;81;20992;-85
2022/09/02 06:57:48;;;;;;;3.40;2.10;;;;;;;16.42;68.94;99408.61;2170576;81;21007;-83
2022/09/02 07:00:48;;;;;;;5.25;2.02;;;;;;;16.66;67.90;99412.11;2170769;81;20972;-83
2022/09/02 07:07:08;;;;;;;2.22;1.57;;;;;;;17.16;66.66;99409.23;2170411;82;21340;-85
2022/09/02 07:10:08;;;;;;;4.20;1.95;;;;;;;17.54;65.07;99407.70;2170458;81;21000;-81
2022/09/02 07:13:09;;;;;;;4.00;1.62;;;;;;;17.76;64.56;99412.41;2170168;81;21001;-84
2022/09/02 07:16:09;;;;;;;11.53;1.80;;;;;;;18.06;63.38;99409.95;2170709;81;21043;-84
2022/09/02 07:19:10;;;;;;;2.40;1.37;;;;;;;18.22;61.42;99404.97;2171305;82;21008;-84
2022/09/02 07:22:10;;;;;;;1.92;1.12;;;;;;;18.39;59.60;99406.99;2171240;81;21643;-84
2022/09/02 07:25:11;;;;;;;5.58;1.55;;;;;;;18.55;58.72;99409.02;2171033;81;21000;-83
2022/09/02 07:28:11;;;;;;;2.08;1.20;;;;;;;18.70;57.81;99404.03;2170411;81;21003;-75
2022/09/02 07:31:11;;;;;;;2.83;1.00;;;;;;;18.82;57.80;99409.17;2168426;81;21039;-83
2022/09/02 07:34:13;;;;;;;4.42;1.50;;;;;;;19.04;56.27;99409.33;2170293;81;20992;-80
2022/09/02 07:37:12;;;;;;;107.50;9.90;;;;;;;19.05;54.53;99411.08;2170285;81;20995;-81
2022/09/02 07:40:13;;;;;;;5.72;1.10;;;;;;;18.97;54.66;99413.39;2171029;81;20976;-83
2022/09/02 07:43:13;;;;;;;2.33;1.00;;;;;;;19.10;54.00;99413.69;2171155;81;20968;-86
2022/09/02 07:46:13;;;;;;;3.02;0.88;;;;;;;19.13;51.64;99411.45;2171195;81;21542;-85
2022/09/02 07:49:14;;;;;;;2.95;0.95;;;;;;;19.07;53.05;99411.96;2171752;81;21060;-86
2022/09/02 07:52:15;;;;;;;2.17;1.00;;;;;;;19.27;53.40;99416.10;2171452;81;21007;-85
2022/09/02 07:55:14;;;;;;;1.75;1.02;;;;;;;19.28;51.74;99413.88;2171288;81;21466;-85
2022/09/02 07:58:15;;;;;;;2.02;1.10;;;;;;;19.39;52.42;99409.31;2171719;81;20972;-85
2022/09/02 08:01:15;;;;;;;2.95;1.22;;;;;;;19.65;51.49;99408.94;2171749;81;20996;-83
2022/09/02 08:04:17;;;;;;;8.60;1.22;;;;;;;19.81;51.04;99406.92;2171316;81;20913;-83
2022/09/02 08:07:22;;;;;;;1.95;1.20;;;;;;;19.95;50.55;99401.84;2170939;82;21032;-83
2022/09/02 08:10:16;;;;;;;1.55;0.98;;;;;;;20.10;49.52;99406.45;2171305;81;21016;-83
2022/09/02 08:13:17;;;;;;;1.52;0.90;;;;;;;20.14;49.96;99409.02;2171650;82;21028;-81
2022/09/02 08:16:17;;;;;;;3.15;0.93;;;;;;;20.19;48.58;99403.64;2171049;82;21120;-83
2022/09/02 08:19:18;;;;;;;1.12;0.85;;;;;;;20.26;48.95;99412.77;2172445;81;21051;-84
2022/09/02 08:22:18;;;;;;;0.95;0.80;;;;;;;20.41;48.12;99416.08;2172215;81;20992;-83
2022/09/02 08:25:19;;;;;;;234.12;21.35;;;;;;;20.42;48.01;99407.22;2171933;81;21075;-85
2022/09/02 08:28:19;;;;;;;9.08;1.80;;;;;;;20.57;47.37;99410.90;2171263;81;21236;-83
2022/09/02 08:31:19;;;;;;;6.45;1.00;;;;;;;20.62;46.32;99403.28;2171022;82;21015;-81
2022/09/02 08:34:20;;;;;;;1.47;0.80;;;;;;;20.72;45.89;99406.62;2171000;82;20960;-83
2022/09/02 08:37:21;;;;;;;11.35;1.22;;;;;;;20.84;44.84;99405.07;2170998;81;21415;-82
2022/09/02 08:40:21;;;;;;;1.95;1.02;;;;;;;21.06;44.92;99400.63;2171156;81;21020;-84
2022/09/02 08:43:23;;;;;;;1.40;1.12;;;;;;;21.39;44.43;99399.91;2170411;82;20956;-82
2022/09/02 08:46:24;;;;;;;7.80;1.30;;;;;;;21.34;43.96;99395.16;2170608;81;21651;-82
2022/09/02 08:49:22;;;;;;;10.93;2.30;;;;;;;21.17;44.79;99406.58;2171197;81;21011;-83
2022/09/02 08:52:22;;;;;;;1.50;1.00;;;;;;;21.46;44.18;99396.66;2171112;82;21019;-82
2022/09/02 08:55:24;;;;;;;14.23;2.10;;;;;;;21.89;43.01;99395.19;2170541;81;21671;-83
2022/09/02 08:58:23;;;;;;;22.42;3.52;;;;;;;22.03;42.69;99391.76;2170920;81;20992;-84
2022/09/02 09:01:23;;;;;;;5.10;0.90;;;;;;;22.17;41.66;99386.95;2171333;82;21048;-83
2022/09/02 09:04:24;;;;;;;1.92;0.90;;;;;;;22.38;41.50;99380.63;2171406;82;21395;-82
2022/09/02 09:07:24;;;;;;;1.72;0.95;;;;;;;22.66;41.48;99389.63;2171189;81;20968;-83
2022/09/02 09:10:25;;;;;;;2.05;1.05;;;;;;;22.42;39.69;99387.16;2171063;81;21083;-81
2022/09/02 09:13:25;;;;;;;3.62;1.32;;;;;;;22.01;41.36;99388.23;2170801;81;21000;-83
2022/09/02 09:16:26;;;;;;;9.00;2.08;;;;;;;21.64;40.93;99384.27;2170580;81;21079;-82
2022/09/02 09:19:26;;;;;;;639.35;68.87;;;;;;;21.40;41.61;99384.39;2170661;81;21023;-83
2022/09/02 09:22:26;;;;;;;9.83;1.80;;;;;;;21.26;43.09;99379.86;2171556;81;21027;-84
2022/09/02 09:25:30;;;;;;;0.70;0.70;;;;;;;21.18;42.21;99379.12;2171967;82;20928;-84
2022/09/02 09:28:30;;;;;;;7.35;0.75;;;;;;;21.18;42.77;99376.02;2171483;82;21490;-83
2022/09/02 09:31:31;;;;;;;3.83;1.00;;;;;;;21.21;42.62;99379.06;2171277;81;20965;-83
2022/09/02 09:34:31;;;;;;;1.10;1.00;;;;;;;21.66;42.21;99378.91;2171544;81;20936;-82
2022/09/02 09:37:31;;;;;;;2.92;1.37;;;;;;;21.98;41.18;99369.70;2172076;81;21459;-83
2022/09/02 09:40:32;;;;;;;2.40;1.10;;;;;;;21.84;40.85;99375.37;2172441;81;20988;-83
2022/09/02 09:43:32;;;;;;;21.20;1.98;;;;;;;22.04;40.44;99373.56;2171310;81;20980;-82
2022/09/02 09:46:35;;;;;;;11.93;1.20;;;;;;;21.95;40.70;99371.11;2170835;81;21035;-82
2022/09/02 09:49:35;;;;;;;9.48;1.60;;;;;;;21.98;40.82;99365.72;2164241;82;20977;-82
2022/09/02 09:52:36;;;;;;;6.28;1.27;;;;;;;22.40;40.83;99366.84;2171348;81;21412;-80
2022/09/02 09:55:36;;;;;;;3.15;0.80;;;;;;;22.44;39.05;99359.19;2170101;81;21616;-84
2022/09/02 09:58:36;;;;;;;1.55;1.00;;;;;;;22.40;39.36;99355.73;2170579;81;21024;-83
2022/09/02 10:01:37;;;;;;;0.98;0.88;;;;;;;22.08;38.43;99361.94;2170743;81;20972;-82
2022/09/02 10:04:37;;;;;;;4.67;1.60;;;;;;;21.73;39.18;99357.50;2170904;82;21432;-83
2022/09/02 10:07:37;;;;;;;3.17;1.00;;;;;;;21.92;39.03;99347.27;2170965;81;21000;-83
2022/09/02 10:10:38;;;;;;;5.17;1.00;;;;;;;22.13;39.99;99352.05;2171053;81;20972;-84
2022/09/02 10:13:38;;;;;;;4.83;1.40;;;;;;;22.18;38.85;99346.61;2170662;81;21023;-83
2022/09/02 10:16:41;;;;;;;4.03;1.15;;;;;;;22.01;39.32;99349.69;2170230;81;21511;-82
2022/09/02 10:19:39;;;;;;;40.92;4.78;;;;;;;21.94;39.78;99354.30;2170695;81;21001;-83
2022/09/02 10:22:39;;;;;;;57.53;6.70;;;;;;;21.96;40.63;99352.05;2170413;81;21020;-79
2022/09/02 10:25:41;;;;;;;4.28;1.60;;;;;;;22.36;39.91;99346.11;2170534;81;20980;-82
2022/09/02 10:28:40;;;;;;;3.67;1.40;;;;;;;22.82;38.55;99336.86;2170494;81;20980;-83
2022/09/02 10:31:41;;;;;;;3.83;1.02;;;;;;;22.90;38.48;99336.16;2170573;81;21476;-83
2022/09/02 10:34:41;;;;;;;9.23;1.65;;;;;;;22.84;37.52;99337.22;2170725;81;21048;-83
2022/09/02 10:37:41;;;;;;;2.10;1.60;;;;;;;22.50;37.89;99339.06;2171067;81;21363;-84
2022/09/02 10:40:42;;;;;;;5.08;1.42;;;;;;;22.52;38.29;99336.77;2170326;82;21694;-83
2022/09/02 10:43:42;;;;;;;2.08;1.10;;;;;;;22.72;38.11;99336.22;2170042;81;20980;-82
2022/09/02 10:46:44;;;;;;;1.30;0.82;;;;;;;23.12;37.24;99327.05;2169585;81;21023;-81
2022/09/02 10:49:43;;;;;;;3.33;1.20;;;;;;;23.43;35.76;99338.50;2169637;81;20995;-83
2022/09/02 10:52:44;;;;;;;6.65;1.15;;;;;;;23.09;35.40;99334.68;2170942;81;21011;-82
2022/09/02 10:55:44;;;;;;;1.32;0.93;;;;;;;22.55;36.81;99331.86;2171361;81;21415;-83
2022/09/02 10:58:44;;;;;;;6.72;1.00;;;;;;;22.21;36.65;99344.74;2171129;81;21481;-82
2022/09/02 11:01:45;;;;;;;1.65;0.80;;;;;;;21.97;37.00;99338.72;2172446;81;20952;-81
2022/09/02 11:04:45;;;;;;;0.65;0.65;;;;;;;21.79;37.18;99340.53;2172236;82;20977;-82
2022/09/02 11:07:46;;;;;;;15.38;1.47;;;;;;;21.99;37.47;99332.91;2172551;81;20975;-82
2022/09/02 11:10:46;;;;;;;9.28;1.10;;;;;;;21.73;37.14;99332.72;2171791;81;20980;-82
2022/09/02 11:13:46;;;;;;;2.12;0.80;;;;;;;21.31;37.79;99335.48;2173408;81;20984;-81
2022/09/02 11:16:47;;;;;;;4.83;1.15;;;;;;;21.05;38.83;99333.86;2187708;81;21023;-80
2022/09/02 11:19:47;;;;;;;8.60;1.20;;;;;;;21.02;39.58;99329.95;2187208;81;20932;-83
2022/09/02 11:22:48;;;;;;;2.05;1.02;;;;;;;21.19;39.10;99333.09;2187631;81;20936;-83
2022/09/02 11:25:51;;;;;;;8.63;1.70;;;;;;;21.22;39.47;99330.36;2187277;81;20968;-83
2022/09/02 11:28:51;;;;;;;1.30;1.00;;;;;;;21.42;39.47;99322.83;2187161;81;21000;-83
2022/09/02 11:31:52;;;;;;;2.15;0.90;;;;;;;21.83;38.83;99320.94;2187081;81;21003;-83
2022/09/02 11:34:52;;;;;;;0.82;0.82;;;;;;;22.06;37.13;99321.69;2188109;81;20995;-83
2022/09/02 11:37:52;;;;;;;1.87;0.78;;;;;;;22.11;36.80;99319.77;2187840;81;21268;-83
2022/09/02 11:40:53;;;;;;;2.52;0.90;;;;;;;22.30;37.45;99310.83;2187580;81;20956;-82
2022/09/02 11:43:53;;;;;;;1.65;0.80;;;;;;;22.73;36.63;99311.81;2187546;81;20996;-82
2022/09/02 11:46:53;;;;;;;6.33;1.40;;;;;;;22.69;34.21;99307.05;2186592;81;21007;-82
2022/09/02 11:49:54;;;;;;;2.15;1.05;;;;;;;22.38;35.24;99300.84;2186854;81;20971;-80
2022/09/02 11:52:57;;;;;;;3.62;0.80;;;;;;;22.18;36.21;99304.07;2187261;81;20942;-84
2022/09/02 11:55:55;;;;;;;1.67;1.30;;;;;;;22.10;36.47;99305.61;2187233;81;21451;-83
2022/09/02 11:58:55;;;;;;;2.27;1.10;;;;;;;22.12;37.25;99302.45;2186731;81;20999;-83
2022/09/02 12:01:55;;;;;;;1.15;0.90;;;;;;;22.19;37.33;99303.16;2187032;81;21279;-84
2022/09/02 12:04:56;;;;;;;1.17;0.95;;;;;;;22.23;37.80;99307.02;2186997;81;21464;-84
2022/09/02 12:07:56;;;;;;;2.00;1.00;;;;;;;22.24;37.00;99302.11;2186523;81;20999;-82
2022/09/02 12:10:58;;;;;;;3.92;1.20;;;;;;;22.16;36.56;99296.59;2185815;81;20972;-83
2022/09/02 12:13:58;;;;;;;28.83;2.77;;;;;;;22.01;36.94;99289.88;2183944;81;21415;-81
2022/09/02 12:17:01;;;;;;;958.70;107.27;;;;;;;21.87;37.30;99295.56;2168703;81;21032;-83
2022/09/02 12:19:58;;;;;;;20.97;3.72;;;;;;;21.78;37.84;99294.94;2169156;81;20981;-81
2022/09/02 12:22:58;;;;;;;9.28;1.92;;;;;;;21.79;37.91;99299.34;2169179;81;20997;-82
2022/09/02 12:25:59;;;;;;;1.47;0.93;;;;;;;21.83;37.96;99297.89;2169156;81;20933;-82
2022/09/02 12:28:59;;;;;;;8.05;1.25;;;;;;;21.93;37.25;99293.20;2169332;81;21024;-82
2022/09/02 12:32:00;;;;;;;2.17;1.10;;;;;;;22.03;36.36;99282.77;2169203;81;21064;-81
2022/09/02 12:35:00;;;;;;;69.30;4.87;;;;;;;22.22;35.81;99280.47;2168997;81;20980;-80
2022/09/02 12:38:00;;;;;;;1.42;1.15;;;;;;;22.24;35.85;99282.17;2168737;82;20964;-81
2022/09/02 12:41:03;;;;;;;2.65;1.10;;;;;;;22.41;35.23;99284.34;2168995;81;20987;-83
2022/09/02 12:44:03;;;;;;;4.62;1.70;;;;;;;22.50;35.74;99280.08;2162975;82;20995;-83
2022/09/02 12:47:03;;;;;;;2.60;1.90;;;;;;;22.51;35.53;99287.14;2168872;81;21346;-82
2022/09/02 12:50:04;;;;;;;2.40;1.50;;;;;;;22.13;35.05;99282.93;2169353;82;20964;-82
2022/09/02 12:53:05;;;;;;;3.12;1.75;;;;;;;21.83;36.83;99280.62;2169425;81;20940;-81
2022/09/02 12:56:05;;;;;;;55.85;5.40;;;;;;;21.80;36.39;99276.72;2169631;81;21031;-82
2022/09/02 12:59:05;;;;;;;4.85;1.05;;;;;;;21.81;36.28;99274.93;2170427;82;21024;-83
2022/09/02 13:02:06;;;;;;;3.42;1.30;;;;;;;21.75;36.43;99281.28;2169926;81;21442;-82
2022/09/02 13:05:06;;;;;;;4.10;1.20;;;;;;;21.60;35.88;99278.98;2169863;82;20961;-81
2022/09/02 13:08:07;;;;;;;4.28;1.30;;;;;;;21.56;36.32;99275.55;2170040;81;20930;-83
2022/09/02 13:11:07;;;;;;;9.38;1.75;;;;;;;21.51;36.33;99265.49;2169855;81;21715;-83
2022/09/02 13:14:07;;;;;;;5.58;2.40;;;;;;;21.47;36.45;99256.31;2169809;81;20984;-83
2022/09/02 13:17:08;;;;;;;7.25;1.98;;;;;;;21.47;35.52;99257.19;2169832;81;21042;-83
2022/09/02 13:20:08;;;;;;;1.05;1.00;;;;;;;21.57;36.47;99250.73;2169954;81;21031;-80
2022/09/02 13:23:08;;;;;;;1.75;1.07;;;;;;;21.77;36.34;99248.03;2170882;81;20969;-82
2022/09/02 13:26:09;;;;;;;1.82;1.07;;;;;;;21.95;35.88;99247.52;2169751;81;20937;-82
2022/09/02 13:29:09;;;;;;;2.85;1.30;;;;;;;22.07;35.90;99244.55;2169508;81;21011;-82
2022/09/02 13:32:10;;;;;;;29.00;2.58;;;;;;;22.19;36.78;99248.65;2170267;81;21031;-82
2022/09/02 13:35:11;;;;;;;1.77;1.15;;;;;;;22.27;35.74;99243.11;2169929;81;21483;-83
2022/09/02 13:38:10;;;;;;;1.92;1.10;;;;;;;22.06;35.86;99248.13;2169973;81;20956;-82
2022/09/02 13:41:11;;;;;;;1.62;1.05;;;;;;;21.79;35.42;99241.76;2170243;82;21015;-83
2022/09/02 13:44:11;;;;;;;9.08;1.87;;;;;;;21.83;36.16;99234.11;2171052;81;20992;-83
2022/09/02 13:47:12;;;;;;;72.45;6.10;;;;;;;22.01;35.01;99228.75;2171323;81;21039;-83
2022/09/02 13:50:12;;;;;;;5.92;1.20;;;;;;;22.00;35.24;99227.00;2171844;81;21350;-82
2022/09/02 13:53:12;;;;;;;21.27;2.95;;;;;;;22.10;34.79;99219.67;2171607;81;20988;-83
2022/09/02 13:56:13;;;;;;;1.50;1.32;;;;;;;22.20;34.52;99222.02;2171785;81;21024;-83
2022/09/02 13:59:13;;;;;;;1.90;1.40;;;;;;;22.40;34.49;99220.55;2171978;81;20961;-83
2022/09/02 14:02:14;;;;;;;3.50;1.10;;;;;;;22.59;34.24;99224.42;2171591;81;20936;-83
2022/09/02 14:05:14;;;;;;;4.78;1.62;;;;;;;22.72;33.94;99217.81;2171777;81;20973;-83
2022/09/02 14:08:15;;;;;;;2.27;1.47;;;;;;;22.76;33.08;99222.11;2171590;81;20977;-83
2022/09/02 14:11:15;;;;;;;2.90;1.17;;;;;;;22.63;33.65;99222.55;2171842;81;20956;-83
2022/09/02 14:14:16;;;;;;;3.27;1.42;;;;;;;22.21;33.72;99230.41;2172339;81;20933;-84
2022/09/02 14:17:16;;;;;;;3.17;2.12;;;;;;;21.83;34.15;99235.45;2187713;81;21052;-83